Time;durP1;ratioP1;P1;durP2;ratioP2;P2;SDS_P1;SDS_P2;PMS_P1;PMS_P2;Temp;Humidity;BMP_temperature;BMP_pressure;BME280_temperature;BME280_humidity;BME280_pressure;Samples;Min_cycle;Max_cycle;Signal;HPM_P1;HPM_P2
2023/04/19 00:00:20;;;;;;;10.20;6.88;;;7.90;99.90;;;;;;5102288;28;20089;-85
2023/04/19 00:02:48;;;;;;;8.82;6.32;;;8.00;99.90;;;;;;5101818;28;20089;-84
2023/04/19 00:05:14;;;;;;;12.13;6.82;;;7.90;99.90;;;;;;5086319;28;20047;-85
2023/04/19 00:07:40;;;;;;;11.10;6.80;;;7.90;99.90;;;;;;5095794;28;20058;-85
2023/04/19 00:10:06;;;;;;;11.93;6.75;;;8.00;99.90;;;;;;5096305;28;20048;-85
2023/04/19 00:12:32;;;;;;;12.35;6.93;;;7.90;99.90;;;;;;5092992;27;20055;-85
2023/04/19 00:14:57;;;;;;;10.10;6.70;;;7.90;99.90;;;;;;5106028;27;20058;-85
2023/04/19 00:17:23;;;;;;;9.75;6.72;;;7.90;99.90;;;;;;5083177;27;20050;-85
2023/04/19 00:19:49;;;;;;;11.00;6.93;;;7.80;99.90;;;;;;5106992;27;20054;-84
2023/04/19 00:22:16;;;;;;;15.48;8.15;;;7.90;99.90;;;;;;5082284;27;20091;-84
2023/04/19 00:24:41;;;;;;;11.82;7.18;;;7.90;99.90;;;;;;5096435;27;20043;-84
2023/04/19 00:27:07;;;;;;;10.18;7.18;;;8.30;99.90;;;;;;5106212;28;20505;-85
2023/04/19 00:29:33;;;;;;;10.30;7.45;;;7.80;99.90;;;;;;5099010;27;20086;-85
2023/04/19 00:31:58;;;;;;;11.73;8.45;;;7.80;99.90;;;;;;5087911;27;20050;-84
2023/04/19 00:34:24;;;;;;;13.75;8.15;;;7.80;99.90;;;;;;5111537;27;20126;-85
2023/04/19 00:36:50;;;;;;;12.52;7.75;;;7.90;99.90;;;;;;5099950;27;20039;-84
2023/04/19 00:39:16;;;;;;;13.25;7.90;;;7.80;99.90;;;;;;5106059;27;20039;-84
2023/04/19 00:41:42;;;;;;;12.18;8.15;;;7.80;99.90;;;;;;5086383;27;20035;-85
2023/04/19 00:44:07;;;;;;;13.35;7.70;;;7.80;99.90;;;;;;5112663;27;20047;-85
2023/04/19 00:46:35;;;;;;;14.18;8.93;;;7.90;99.90;;;;;;5099698;28;20046;-85
2023/04/19 00:49:01;;;;;;;11.85;7.97;;;7.80;99.90;;;;;;5116316;27;20051;-85
2023/04/19 00:51:26;;;;;;;13.40;8.40;;;7.80;99.90;;;;;;5099676;27;20062;-84
2023/04/19 00:53:53;;;;;;;12.13;8.10;;;8.50;99.90;;;;;;5105954;27;20123;-85
2023/04/19 00:56:20;;;;;;;13.07;9.15;;;7.80;99.90;;;;;;5083875;27;20448;-85
2023/04/19 00:58:47;;;;;;;13.02;8.88;;;7.80;99.90;;;;;;5125594;27;20473;-86
2023/04/19 01:01:13;;;;;;;13.18;9.25;;;7.70;99.90;;;;;;5130249;27;20043;-85
2023/04/19 01:03:39;;;;;;;15.75;9.50;;;7.70;99.90;;;;;;5112054;27;20467;-84
2023/04/19 01:06:05;;;;;;;13.45;9.10;;;7.70;99.90;;;;;;5104545;28;20115;-85
2023/04/19 01:08:30;;;;;;;14.57;9.00;;;7.70;99.90;;;;;;5089370;27;20061;-84
2023/04/19 01:10:56;;;;;;;14.45;9.48;;;7.60;99.90;;;;;;5129007;27;20043;-84
2023/04/19 01:13:22;;;;;;;14.95;10.15;;;7.80;99.90;;;;;;5098219;27;20086;-85
2023/04/19 01:15:48;;;;;;;14.30;9.30;;;7.60;99.90;;;;;;5095906;27;20074;-85
2023/04/19 01:18:13;;;;;;;14.80;9.68;;;7.40;99.90;;;;;;5104684;27;20141;-85
2023/04/19 01:20:39;;;;;;;20.05;10.10;;;7.30;99.90;;;;;;5085439;27;20490;-84
2023/04/19 01:23:05;;;;;;;16.05;10.55;;;7.30;99.90;;;;;;5112639;27;20478;-85
2023/04/19 01:25:31;;;;;;;17.20;10.43;;;7.20;99.90;;;;;;5083788;27;20489;-84
2023/04/19 01:27:56;;;;;;;16.27;10.93;;;7.40;99.90;;;;;;5115683;27;20091;-85
2023/04/19 01:30:22;;;;;;;20.05;10.60;;;7.10;99.90;;;;;;5111718;27;20055;-85
2023/04/19 01:32:48;;;;;;;16.75;11.02;;;7.10;99.90;;;;;;5093853;27;20043;-84
2023/04/19 01:35:13;;;;;;;14.80;10.80;;;7.00;99.90;;;;;;5102591;27;20042;-85
2023/04/19 01:37:39;;;;;;;15.45;11.00;;;7.00;99.90;;;;;;5110912;27;20301;-85
2023/04/19 01:40:05;;;;;;;15.00;9.95;;;7.00;99.90;;;;;;5092709;28;20498;-84
2023/04/19 01:42:31;;;;;;;15.65;10.25;;;6.90;99.90;;;;;;5084437;28;20047;-85
2023/04/19 01:44:56;;;;;;;15.93;11.00;;;7.20;99.90;;;;;;5093757;28;20043;-84
2023/04/19 01:47:23;;;;;;;17.15;10.98;;;6.90;99.90;;;;;;5108222;28;20069;-84
2023/04/19 01:49:49;;;;;;;14.82;9.38;;;6.90;99.90;;;;;;5104708;28;20126;-85
2023/04/19 01:52:15;;;;;;;12.68;8.68;;;7.00;99.90;;;;;;5086620;27;20126;-85
2023/04/19 01:54:40;;;;;;;15.10;8.55;;;7.00;99.90;;;;;;5121530;27;20490;-84
2023/04/19 01:57:06;;;;;;;14.35;8.50;;;7.00;99.90;;;;;;5088347;27;20085;-85
2023/04/19 01:59:32;;;;;;;15.15;8.68;;;7.00;99.90;;;;;;5103976;28;20059;-85
2023/04/19 02:01:57;;;;;;;12.85;8.85;;;7.50;99.90;;;;;;5087802;27;20063;-84
2023/04/19 02:04:23;;;;;;;15.65;8.40;;;7.30;99.90;;;;;;5111428;27;20047;-85
2023/04/19 02:06:49;;;;;;;14.85;8.15;;;7.10;99.90;;;;;;5092812;27;20039;-84
2023/04/19 02:09:15;;;;;;;11.00;8.15;;;7.10;99.90;;;;;;5094692;27;20043;-85
2023/04/19 02:11:40;;;;;;;11.93;7.68;;;7.10;99.90;;;;;;5097479;27;20043;-85
2023/04/19 02:14:06;;;;;;;12.73;8.27;;;7.10;99.90;;;;;;5093799;27;20070;-84
2023/04/19 02:16:31;;;;;;;10.75;7.25;;;7.00;99.90;;;;;;5103089;27;20065;-83
2023/04/19 02:18:57;;;;;;;13.10;7.88;;;7.00;99.90;;;;;;5098579;27;20070;-85
2023/04/19 02:21:23;;;;;;;13.75;7.13;;;7.20;99.90;;;;;;5093010;27;20054;-84
2023/04/19 02:23:49;;;;;;;10.45;6.45;;;6.90;99.90;;;;;;5091485;28;20533;-84
2023/04/19 02:26:14;;;;;;;16.27;7.03;;;6.90;99.90;;;;;;5087685;27;20130;-85
2023/04/19 02:28:40;;;;;;;15.10;7.18;;;6.90;99.90;;;;;;5102883;28;20092;-85
2023/04/19 02:31:09;;;;;;;10.23;6.18;;;7.30;99.90;;;;;;5087740;27;20039;-84
2023/04/19 02:33:35;;;;;;;11.00;6.07;;;6.80;99.90;;;;;;5102963;28;20503;-85
2023/04/19 02:36:01;;;;;;;21.52;6.50;;;7.20;99.90;;;;;;5085965;27;20043;-85
2023/04/19 02:38:26;;;;;;;20.20;7.35;;;6.80;99.90;;;;;;5081439;27;20047;-85
2023/04/19 02:40:52;;;;;;;11.95;6.93;;;7.10;99.90;;;;;;5121148;27;20039;-85
2023/04/19 02:43:17;;;;;;;14.07;5.95;;;6.70;99.90;;;;;;5102187;27;20035;-84
2023/04/19 02:45:43;;;;;;;11.18;6.40;;;6.60;99.90;;;;;;5095122;28;20055;-83
2023/04/19 02:48:09;;;;;;;10.95;6.63;;;6.60;99.90;;;;;;5085259;27;20078;-84
2023/04/19 02:50:38;;;;;;;9.43;6.15;;;6.60;99.90;;;;;;5112491;27;20044;-84
2023/04/19 02:53:04;;;;;;;11.77;7.05;;;6.80;99.90;;;;;;5115756;27;20145;-85
2023/04/19 02:55:29;;;;;;;11.93;6.70;;;6.50;99.90;;;;;;5111949;27;20202;-84
2023/04/19 02:57:55;;;;;;;11.45;7.68;;;6.50;99.90;;;;;;5094782;27;20046;-85
2023/04/19 03:00:21;;;;;;;14.23;7.00;;;6.50;99.90;;;;;;5093414;27;20393;-85
2023/04/19 03:02:46;;;;;;;11.20;6.85;;;6.50;99.90;;;;;;5092690;27;20545;-84
2023/04/19 03:05:12;;;;;;;13.52;7.07;;;6.80;99.90;;;;;;5120489;27;20049;-84
2023/04/19 03:07:38;;;;;;;10.38;6.80;;;6.40;99.90;;;;;;5096157;27;20082;-84
2023/04/19 03:10:04;;;;;;;11.27;6.15;;;6.40;99.90;;;;;;5102902;27;20074;-84
2023/04/19 03:12:30;;;;;;;12.18;6.47;;;6.30;99.90;;;;;;5083857;27;20065;-84
2023/04/19 03:14:55;;;;;;;14.07;6.03;;;6.30;99.90;;;;;;5096305;28;20491;-84
2023/04/19 03:17:21;;;;;;;9.63;5.80;;;6.60;99.90;;;;;;5101975;28;20058;-85
2023/04/19 03:19:46;;;;;;;12.60;6.40;;;6.30;99.90;;;;;;5113762;27;20043;-84
2023/04/19 03:22:12;;;;;;;12.35;6.53;;;6.40;99.90;;;;;;5082990;27;20046;-84
2023/04/19 03:24:38;;;;;;;11.45;6.80;;;6.40;99.90;;;;;;5109537;27;20572;-84
2023/04/19 03:27:03;;;;;;;14.70;7.22;;;6.20;99.90;;;;;;5102726;27;20448;-85
2023/04/19 03:29:29;;;;;;;12.18;6.30;;;6.20;99.90;;;;;;5095903;28;20064;-84
2023/04/19 03:31:55;;;;;;;13.10;6.45;;;6.20;99.90;;;;;;5102092;28;20035;-84
2023/04/19 03:34:20;;;;;;;11.65;6.28;;;6.20;99.90;;;;;;5086235;27;20118;-85
2023/04/19 03:36:46;;;;;;;9.93;5.95;;;6.20;99.90;;;;;;5102413;28;20100;-84
2023/04/19 03:39:12;;;;;;;14.68;6.93;;;6.20;99.90;;;;;;5094343;27;20225;-84
2023/04/19 03:41:39;;;;;;;10.80;6.22;;;6.20;99.90;;;;;;5096130;27;20049;-84
2023/04/19 03:44:05;;;;;;;9.73;5.90;;;6.60;99.90;;;;;;5096029;28;20059;-84
2023/04/19 03:46:30;;;;;;;14.02;6.57;;;6.10;99.90;;;;;;5101946;28;20081;-84
2023/04/19 03:48:57;;;;;;;10.63;5.60;;;6.10;99.90;;;;;;5112827;28;20122;-84
2023/04/19 03:51:22;;;;;;;10.68;5.80;;;6.10;99.90;;;;;;5094405;28;20042;-84
2023/04/19 03:53:48;;;;;;;9.05;5.50;;;6.00;99.90;;;;;;5127488;28;20462;-84
2023/04/19 03:56:13;;;;;;;10.60;5.82;;;6.50;99.90;;;;;;5089005;28;20494;-84
2023/04/19 03:58:39;;;;;;;8.88;5.70;;;6.20;99.90;;;;;;5082174;28;20054;-85
2023/04/19 04:01:07;;;;;;;10.65;5.57;;;6.20;99.90;;;;;;5102546;28;20036;-84
2023/04/19 04:03:33;;;;;;;12.43;5.90;;;6.00;99.90;;;;;;5086215;28;20126;-84
2023/04/19 04:05:59;;;;;;;8.85;5.15;;;5.90;99.90;;;;;;5092326;28;20048;-85
2023/04/19 04:08:25;;;;;;;10.10;5.43;;;6.20;99.90;;;;;;5119810;27;20105;-84
2023/04/19 04:10:51;;;;;;;12.02;5.70;;;5.90;99.90;;;;;;5120135;28;20039;-85
2023/04/19 04:13:17;;;;;;;9.50;5.28;;;5.90;99.90;;;;;;5112061;28;20088;-84
2023/04/19 04:15:43;;;;;;;10.25;5.20;;;6.50;99.90;;;;;;5082435;28;20043;-84
2023/04/19 04:18:08;;;;;;;9.85;5.40;;;5.80;99.90;;;;;;5096322;28;20040;-84
2023/04/19 04:20:35;;;;;;;10.07;5.30;;;5.70;99.90;;;;;;5101130;28;20122;-84
2023/04/19 04:23:01;;;;;;;12.98;5.65;;;5.80;99.90;;;;;;5096436;28;20047;-85
2023/04/19 04:25:27;;;;;;;11.00;5.10;;;5.80;99.90;;;;;;5091257;28;20109;-84
2023/04/19 04:27:53;;;;;;;9.68;4.97;;;6.00;99.90;;;;;;5106985;28;20050;-84
2023/04/19 04:30:22;;;;;;;11.85;5.40;;;5.70;99.90;;;;;;5079610;28;20479;-85
2023/04/19 04:32:50;;;;;;;8.75;5.07;;;5.70;99.90;;;;;;5100560;28;20040;-85
2023/04/19 04:35:16;;;;;;;7.50;4.90;;;5.70;99.90;;;;;;5109100;28;20047;-85
2023/04/19 04:37:41;;;;;;;9.48;4.68;;;5.70;99.90;;;;;;5107953;28;20046;-84
2023/04/19 04:40:08;;;;;;;11.05;4.88;;;5.70;99.90;;;;;;5093662;28;20043;-85
2023/04/19 04:42:34;;;;;;;11.07;5.05;;;5.70;99.90;;;;;;5087949;28;20039;-85
2023/04/19 04:45:00;;;;;;;8.10;4.68;;;5.60;99.90;;;;;;5096390;28;20042;-85
2023/04/19 04:47:31;;;;;;;9.55;4.40;;;6.30;99.90;;;;;;5109031;28;20043;-85
2023/04/19 04:49:58;;;;;;;6.72;4.15;;;5.70;99.90;;;;;;5101890;28;20204;-85
2023/04/19 04:52:23;;;;;;;10.77;4.55;;;5.70;99.90;;;;;;5113325;28;20487;-84
2023/04/19 04:54:49;;;;;;;8.35;4.57;;;5.70;99.90;;;;;;5076554;28;20092;-84
2023/04/19 04:57:15;;;;;;;8.35;4.45;;;5.70;99.90;;;;;;5113489;28;20101;-85
2023/04/19 04:59:40;;;;;;;8.27;4.28;;;6.00;99.90;;;;;;5110116;27;20046;-85
2023/04/19 05:02:06;;;;;;;10.73;4.40;;;5.70;99.90;;;;;;5112087;27;20043;-85
2023/04/19 05:04:32;;;;;;;12.52;3.92;;;5.70;99.90;;;;;;5112942;27;20050;-84
2023/04/19 05:06:58;;;;;;;7.85;4.75;;;5.80;99.90;;;;;;5110768;27;20058;-85
2023/04/19 05:09:23;;;;;;;9.43;4.10;;;6.10;99.90;;;;;;5083716;27;20054;-85
2023/04/19 05:11:49;;;;;;;7.25;4.05;;;6.30;99.90;;;;;;5105071;27;20039;-85
2023/04/19 05:14:15;;;;;;;9.90;3.95;;;5.90;99.90;;;;;;5127417;27;20061;-85
2023/04/19 05:16:41;;;;;;;13.23;4.30;;;6.00;99.90;;;;;;5125605;27;20082;-85
2023/04/19 05:19:06;;;;;;;6.97;3.85;;;6.00;99.90;;;;;;5129072;27;20481;-85
2023/04/19 05:21:33;;;;;;;8.23;4.05;;;6.30;99.90;;;;;;5125719;27;20166;-85
2023/04/19 05:23:59;;;;;;;8.48;3.97;;;6.10;99.90;;;;;;5113101;27;20114;-85
2023/04/19 05:26:24;;;;;;;11.63;4.10;;;6.10;99.90;;;;;;5115184;27;20050;-84
2023/04/19 05:28:50;;;;;;;6.63;3.78;;;6.50;99.90;;;;;;5100249;27;20046;-85
2023/04/19 05:31:17;;;;;;;10.02;4.30;;;6.20;99.90;;;;;;5143771;27;20417;-86
2023/04/19 05:33:42;;;;;;;9.77;3.75;;;6.20;99.90;;;;;;5123562;27;20177;-85
2023/04/19 05:36:08;;;;;;;11.25;3.90;;;6.30;99.90;;;;;;5122132;27;20463;-85
2023/04/19 05:38:34;;;;;;;7.15;3.63;;;6.30;99.90;;;;;;5114946;27;20046;-86
2023/04/19 05:41:01;;;;;;;7.90;4.03;;;6.30;99.90;;;;;;5128183;27;20051;-85
2023/04/19 05:43:26;;;;;;;11.93;4.10;;;6.40;99.90;;;;;;5122828;27;20043;-85
2023/04/19 05:45:52;;;;;;;8.43;3.88;;;6.40;99.90;;;;;;5121636;27;20039;-84
2023/04/19 05:48:18;;;;;;;6.70;3.88;;;6.50;99.90;;;;;;5117701;27;20043;-85
2023/04/19 05:50:43;;;;;;;10.05;3.80;;;6.50;99.90;;;;;;5113727;27;20553;-86
2023/04/19 05:53:09;;;;;;;5.97;3.53;;;6.60;99.90;;;;;;5099044;27;20035;-86
2023/04/19 05:55:35;;;;;;;10.05;3.65;;;6.60;99.90;;;;;;5140845;27;20047;-85
2023/04/19 05:58:01;;;;;;;7.22;3.50;;;6.70;99.90;;;;;;5119424;27;20057;-85
2023/04/19 06:00:27;;;;;;;7.38;3.85;;;6.70;99.90;;;;;;5114643;27;20051;-85
2023/04/19 06:02:53;;;;;;;5.75;3.20;;;6.80;99.90;;;;;;5089116;27;20039;-87
2023/04/19 06:05:18;;;;;;;5.63;3.10;;;6.90;99.90;;;;;;5112210;27;20139;-88
2023/04/19 06:07:44;;;;;;;7.32;3.30;;;6.90;99.90;;;;;;5103726;28;20538;-88
2023/04/19 06:10:10;;;;;;;6.57;3.35;;;7.30;99.90;;;;;;5119891;27;20096;-88
2023/04/19 06:12:36;;;;;;;16.08;3.47;;;7.10;99.90;;;;;;5112448;27;20391;-89
2023/04/19 06:15:01;;;;;;;8.23;3.45;;;7.20;99.90;;;;;;5101380;27;20051;-89
2023/04/19 06:17:27;;;;;;;9.00;3.03;;;7.20;99.90;;;;;;5106963;27;20044;-89
2023/04/19 06:19:53;;;;;;;7.60;3.22;;;7.50;99.90;;;;;;5098361;27;20035;-89
2023/04/19 06:22:20;;;;;;;7.10;2.90;;;7.30;99.90;;;;;;5122568;27;20042;-88
2023/04/19 06:24:46;;;;;;;9.02;3.15;;;7.30;99.90;;;;;;5143522;27;20059;-89
2023/04/19 06:27:12;;;;;;;37.08;5.13;;;7.30;99.90;;;;;;5108951;27;20031;-89
2023/04/19 06:29:38;;;;;;;4.88;2.70;;;7.40;99.90;;;;;;5122813;27;20107;-88
2023/04/19 06:32:04;;;;;;;5.25;2.58;;;7.90;99.90;;;;;;5112015;27;20043;-87
2023/04/19 06:34:30;;;;;;;4.97;3.13;;;7.50;99.90;;;;;;5117044;27;20071;-87
2023/04/19 06:36:55;;;;;;;8.60;2.70;;;7.60;99.90;;;;;;5107304;27;20048;-88
2023/04/19 06:39:21;;;;;;;9.57;3.10;;;7.70;99.90;;;;;;5104477;27;20139;-86
2023/04/19 06:41:47;;;;;;;10.85;2.60;;;7.80;99.90;;;;;;5129998;27;20078;-87
2023/04/19 06:44:12;;;;;;;9.65;2.75;;;8.20;99.90;;;;;;5116925;27;20058;-88
2023/04/19 06:46:39;;;;;;;5.53;2.50;;;7.90;99.90;;;;;;5118726;27;20057;-88
2023/04/19 06:49:05;;;;;;;3.90;2.00;;;7.90;99.90;;;;;;5147539;27;20443;-87
2023/04/19 06:51:32;;;;;;;7.57;2.78;;;8.00;99.90;;;;;;5113796;27;20450;-88
2023/04/19 06:53:57;;;;;;;6.57;2.88;;;8.00;99.90;;;;;;5128301;27;20051;-89
2023/04/19 06:56:44;;;;;;;9.90;2.83;;;8.10;99.90;;;;;;5111082;27;20055;-88
2023/04/19 06:59:15;;;;;;;11.23;2.78;;;8.10;99.90;;;;;;5107587;28;20036;-87
2023/04/19 07:01:41;;;;;;;6.32;2.30;;;8.10;99.90;;;;;;5091700;27;20130;-88
2023/04/19 07:04:07;;;;;;;4.75;2.10;;;8.10;99.90;;;;;;5111473;27;20047;-88
2023/04/19 07:06:34;;;;;;;5.53;2.70;;;8.20;99.90;;;;;;5117616;27;20043;-86
2023/04/19 07:09:00;;;;;;;5.47;1.95;;;8.30;99.90;;;;;;5114215;27;20041;-86
2023/04/19 07:11:26;;;;;;;5.20;2.20;;;8.30;99.90;;;;;;5111691;27;20047;-87
2023/04/19 07:13:51;;;;;;;6.10;1.90;;;8.40;99.90;;;;;;5105758;27;20478;-88
2023/04/19 07:16:17;;;;;;;6.15;1.90;;;8.70;99.90;;;;;;5111512;28;20100;-86
2023/04/19 07:18:43;;;;;;;7.05;2.08;;;8.50;99.90;;;;;;5112335;27;20031;-88
2023/04/19 07:21:09;;;;;;;5.63;1.80;;;8.60;99.90;;;;;;5127874;27;20075;-88
2023/04/19 07:23:35;;;;;;;5.22;1.75;;;8.70;99.90;;;;;;5104949;28;20134;-88
2023/04/19 07:26:01;;;;;;;5.10;1.45;;;8.80;99.90;;;;;;5083789;28;20558;-88
2023/04/19 07:28:28;;;;;;;11.23;2.28;;;8.90;99.90;;;;;;5110617;27;20188;-88
2023/04/19 07:30:54;;;;;;;9.93;2.17;;;9.10;99.90;;;;;;5099464;28;20112;-88
2023/04/19 07:33:21;;;;;;;5.32;1.73;;;9.00;99.90;;;;;;5103086;28;20405;-89
2023/04/19 07:35:46;;;;;;;8.00;1.75;;;9.10;99.90;;;;;;5086554;27;20051;-88
2023/04/19 07:38:12;;;;;;;4.45;1.65;;;9.20;99.90;;;;;;5109521;28;20023;-89
2023/04/19 07:40:38;;;;;;;5.47;1.67;;;9.30;99.90;;;;;;5112013;28;20505;-87
2023/04/19 07:43:04;;;;;;;7.82;1.80;;;9.30;99.90;;;;;;5092049;28;20477;-88
2023/04/19 07:45:30;;;;;;;7.28;1.73;;;9.30;99.90;;;;;;5095039;28;20501;-88
2023/04/19 07:47:56;;;;;;;3.92;1.60;;;9.40;99.90;;;;;;5092748;28;20532;-88
2023/04/19 07:50:23;;;;;;;4.32;1.80;;;9.50;99.90;;;;;;5085041;28;20047;-89
2023/04/19 07:52:49;;;;;;;3.03;1.40;;;9.50;99.90;;;;;;5095654;28;20126;-89
2023/04/19 07:55:15;;;;;;;5.72;1.73;;;9.50;99.90;;;;;;5099625;28;20051;-88
2023/04/19 07:57:44;;;;;;;3.47;1.70;;;9.60;99.90;;;;;;5107968;28;20039;-90
2023/04/19 08:00:11;;;;;;;10.57;2.17;;;9.70;99.90;;;;;;5101172;28;20075;-87
2023/04/19 08:02:37;;;;;;;7.80;1.63;;;9.70;99.90;;;;;;5096381;28;20100;-88
2023/04/19 08:05:03;;;;;;;9.15;1.58;;;9.80;99.90;;;;;;5099955;28;20080;-88
2023/04/19 08:07:29;;;;;;;6.45;1.45;;;9.80;99.90;;;;;;5092388;28;20057;-88
2023/04/19 08:09:55;;;;;;;8.48;1.65;;;9.90;99.90;;;;;;5104584;28;20039;-88
2023/04/19 08:12:21;;;;;;;10.73;1.83;;;10.00;99.90;;;;;;5095958;28;20044;-88
2023/04/19 08:14:47;;;;;;;4.50;1.27;;;10.00;99.90;;;;;;5099025;28;20097;-88
2023/04/19 08:17:15;;;;;;;6.93;1.52;;;10.00;99.90;;;;;;5109598;28;20126;-88
2023/04/19 08:19:41;;;;;;;2.67;1.50;;;10.10;99.90;;;;;;5110653;28;20097;-89
2023/04/19 08:22:06;;;;;;;5.97;1.38;;;10.20;99.90;;;;;;5096923;28;20383;-89
2023/04/19 08:24:32;;;;;;;4.38;1.40;;;10.20;99.90;;;;;;5109955;28;20047;-89
2023/04/19 08:26:58;;;;;;;14.82;2.03;;;10.30;99.90;;;;;;5110519;28;20485;-88
2023/04/19 08:29:23;;;;;;;23.63;2.67;;;10.40;99.90;;;;;;5115045;27;20093;-89
2023/04/19 08:31:49;;;;;;;11.82;1.77;;;10.40;99.90;;;;;;5120298;27;20038;-89
2023/04/19 08:34:14;;;;;;;6.78;1.50;;;10.50;99.90;;;;;;5113749;27;20032;-89
2023/04/19 08:36:40;;;;;;;5.15;1.60;;;10.50;99.90;;;;;;5116312;27;20079;-89
2023/04/19 08:39:06;;;;;;;2.90;1.05;;;10.60;99.90;;;;;;5115161;27;20526;-88
2023/04/19 08:41:32;;;;;;;9.80;1.50;;;10.60;99.90;;;;;;5112503;27;20049;-89
2023/04/19 08:43:58;;;;;;;4.10;1.60;;;10.70;99.90;;;;;;5130101;27;20051;-89
2023/04/19 08:46:25;;;;;;;3.95;1.48;;;10.80;99.90;;;;;;5108201;27;20027;-88
2023/04/19 08:48:51;;;;;;;3.40;1.55;;;10.80;99.90;;;;;;5118456;27;20038;-88
2023/04/19 08:51:18;;;;;;;5.47;1.50;;;10.90;99.90;;;;;;5113278;27;20043;-88
2023/04/19 08:53:46;;;;;;;4.57;1.50;;;11.00;99.90;;;;;;5124332;27;20474;-89
2023/04/19 08:56:13;;;;;;;24.55;2.00;;;11.10;99.90;;;;;;5107424;28;20550;-89
2023/04/19 08:58:39;;;;;;;6.30;1.40;;;11.10;99.90;;;;;;5102293;27;20039;-88
2023/04/19 09:01:07;;;;;;;13.38;2.08;;;11.20;99.90;;;;;;5084030;27;20035;-87
2023/04/19 09:03:33;;;;;;;3.45;1.20;;;11.30;99.90;;;;;;5095463;28;20054;-88
2023/04/19 09:06:00;;;;;;;20.60;2.40;;;11.30;99.90;;;;;;5100127;27;20498;-89
2023/04/19 09:08:28;;;;;;;14.52;1.95;;;11.40;99.90;;;;;;5099812;27;20101;-88
2023/04/19 09:10:59;;;;;;;18.30;2.65;;;11.50;99.90;;;;;;5101349;27;20150;-87
2023/04/19 09:13:26;;;;;;;8.40;1.50;;;11.60;99.90;;;;;;5113499;27;20043;-88
2023/04/19 09:15:52;;;;;;;3.67;1.27;;;11.70;99.90;;;;;;5105327;28;20138;-89
2023/04/19 09:18:18;;;;;;;6.93;2.08;;;11.80;99.90;;;;;;5092289;27;20545;-89
2023/04/19 09:20:44;;;;;;;7.88;1.58;;;12.00;99.90;;;;;;5113658;27;20142;-89
2023/04/19 09:23:13;;;;;;;6.50;1.17;;;12.10;99.90;;;;;;5116993;27;20058;-89
2023/04/19 09:25:50;;;;;;;3.45;1.27;;;12.10;99.90;;;;;;5097412;27;20043;-89
2023/04/19 09:28:16;;;;;;;2.97;1.30;;;12.20;99.90;;;;;;5093211;28;20047;-88
2023/04/19 09:30:41;;;;;;;11.23;1.83;;;12.20;99.90;;;;;;5082687;28;20055;-89
2023/04/19 09:33:07;;;;;;;6.85;2.08;;;12.30;99.90;;;;;;5077216;28;20399;-88
2023/04/19 09:35:41;;;;;;;6.10;1.58;;;12.50;99.90;;;;;;5075906;28;20051;-88
2023/04/19 09:38:07;;;;;;;10.20;1.70;;;12.40;99.90;;;;;;5076584;28;20039;-88
2023/04/19 09:40:32;;;;;;;9.88;1.55;;;12.50;99.90;;;;;;5093413;28;20051;-88
2023/04/19 09:42:58;;;;;;;15.30;4.60;;;12.50;99.90;;;;;;5075759;28;20410;-88
2023/04/19 09:45:26;;;;;;;7.25;1.35;;;12.60;99.90;;;;;;5076228;28;20035;-89
2023/04/19 09:48:02;;;;;;;4.10;1.63;;;12.70;99.90;;;;;;5076691;28;20118;-90
2023/04/19 09:50:28;;;;;;;2.47;1.13;;;12.70;99.90;;;;;;5075326;28;20044;-89
2023/04/19 09:52:54;;;;;;;8.45;1.50;;;12.70;99.90;;;;;;5077071;28;20173;-90
2023/04/19 09:55:22;;;;;;;3.75;1.20;;;12.70;99.90;;;;;;5076848;28;20078;-89
2023/04/19 09:57:48;;;;;;;15.85;1.50;;;12.80;99.90;;;;;;5063369;28;20088;-90
2023/04/19 10:00:14;;;;;;;5.70;1.30;;;12.90;99.90;;;;;;5076882;28;20131;-90
2023/04/19 10:02:41;;;;;;;3.42;1.05;;;12.90;99.90;;;;;;5076556;28;20047;-90
2023/04/19 10:05:09;;;;;;;17.88;2.38;;;12.90;99.90;;;;;;5076836;28;20065;-91
2023/04/19 10:07:35;;;;;;;16.23;1.83;;;13.00;99.90;;;;;;5076162;28;20539;-89
2023/04/19 10:10:02;;;;;;;3.50;1.15;;;13.00;99.60;;;;;;5077195;28;20051;-89
2023/04/19 10:12:29;;;;;;;4.75;1.20;;;13.00;99.30;;;;;;5075586;28;20044;-90
2023/04/19 10:14:56;;;;;;;5.53;1.00;;;13.10;99.40;;;;;;5076592;28;20044;-89
2023/04/19 10:17:23;;;;;;;8.30;1.30;;;13.20;99.30;;;;;;5076218;28;20047;-89
2023/04/19 10:20:00;;;;;;;9.90;1.25;;;13.20;98.80;;;;;;5074536;28;20047;-89
2023/04/19 10:22:29;;;;;;;15.48;1.45;;;13.20;97.80;;;;;;5075202;28;20040;-89
2023/04/19 10:25:14;;;;;;;34.92;2.78;;;13.30;98.10;;;;;;5076291;28;20051;-90
2023/04/19 10:27:44;;;;;;;6.30;1.25;;;13.30;96.50;;;;;;5075595;28;20463;-90
2023/04/19 10:30:19;;;;;;;3.15;0.93;;;13.30;97.60;;;;;;5113246;27;20051;-90
2023/04/19 10:32:50;;;;;;;9.80;1.13;;;13.40;97.60;;;;;;5112733;27;20081;-89
2023/04/19 10:35:20;;;;;;;14.90;1.70;;;13.50;97.50;;;;;;5093327;28;20042;-89
2023/04/19 10:38:11;;;;;;;10.93;2.15;;;13.40;96.80;;;;;;5110382;27;20035;-90
2023/04/19 10:40:59;;;;;;;6.60;1.65;;;13.40;96.60;;;;;;5112385;27;20043;-89
2023/04/19 10:43:27;;;;;;;2.78;1.00;;;13.40;96.50;;;;;;5114546;27;20074;-90
2023/04/19 10:45:54;;;;;;;1.70;0.70;;;13.50;97.00;;;;;;5108268;27;20079;-90
2023/04/19 10:48:29;;;;;;;14.05;1.45;;;13.50;97.40;;;;;;5116294;27;20122;-89
2023/04/19 10:51:13;;;;;;;8.80;0.88;;;13.60;96.80;;;;;;5110567;27;20437;-90
2023/04/19 10:53:49;;;;;;;4.28;1.00;;;13.60;96.90;;;;;;5114489;27;20046;-89
2023/04/19 10:56:17;;;;;;;4.35;1.00;;;13.60;96.60;;;;;;5114469;27;20042;-90
2023/04/19 10:59:00;;;;;;;9.93;1.42;;;13.60;96.50;;;;;;5114466;27;20110;-89
2023/04/19 11:01:36;;;;;;;4.28;0.60;;;13.60;96.40;;;;;;5105446;27;20050;-90
2023/04/19 11:04:01;;;;;;;4.93;0.93;;;13.80;96.90;;;;;;5111721;27;20122;-90
2023/04/19 11:06:27;;;;;;;22.88;1.70;;;13.80;96.60;;;;;;5113810;27;20168;-91
2023/04/19 11:08:53;;;;;;;3.22;0.75;;;13.80;96.50;;;;;;5104089;27;20039;-89
2023/04/19 11:11:20;;;;;;;21.65;1.98;;;13.80;96.50;;;;;;5117819;27;20034;-90
2023/04/19 11:13:47;;;;;;;18.58;1.20;;;13.80;96.30;;;;;;5104381;27;20035;-89
2023/04/19 11:16:13;;;;;;;6.38;1.05;;;13.80;95.80;;;;;;5134662;27;20095;-89
2023/04/19 11:18:39;;;;;;;7.43;1.13;;;13.80;95.50;;;;;;5103824;27;20043;-89
2023/04/19 11:21:04;;;;;;;2.17;1.00;;;13.90;96.00;;;;;;5113870;27;20034;-87
2023/04/19 11:23:30;;;;;;;4.53;1.00;;;13.90;95.90;;;;;;5115362;27;20438;-89
2023/04/19 11:25:56;;;;;;;2.85;0.80;;;13.90;96.00;;;;;;5124377;27;20081;-89
2023/04/19 11:28:21;;;;;;;32.95;2.33;;;13.90;95.90;;;;;;5115091;27;20047;-89
2023/04/19 11:30:48;;;;;;;5.78;1.20;;;13.90;96.00;;;;;;5107728;27;20062;-89
2023/04/19 11:33:14;;;;;;;3.78;1.05;;;14.00;96.10;;;;;;5110230;27;20043;-89
2023/04/19 11:35:42;;;;;;;7.90;1.15;;;14.00;95.70;;;;;;5094377;27;20047;-90
2023/04/19 11:38:11;;;;;;;5.55;1.30;;;14.00;95.00;;;;;;5113463;27;20491;-89
2023/04/19 11:40:37;;;;;;;4.15;1.48;;;14.00;95.20;;;;;;5116268;27;20073;-90
2023/04/19 11:43:03;;;;;;;3.63;1.20;;;14.00;95.40;;;;;;5115040;27;20026;-90
2023/04/19 11:45:35;;;;;;;5.95;1.63;;;14.00;95.40;;;;;;5115588;27;20467;-90
2023/04/19 11:48:01;;;;;;;4.95;1.17;;;14.00;95.50;;;;;;5096358;28;20054;-90
2023/04/19 11:50:36;;;;;;;7.93;1.45;;;14.00;95.00;;;;;;5107579;27;20075;-88
2023/04/19 11:53:17;;;;;;;10.02;1.33;;;14.00;95.20;;;;;;5095561;28;20135;-89
2023/04/19 11:55:45;;;;;;;10.73;1.52;;;14.10;95.40;;;;;;5094794;27;20039;-90
2023/04/19 11:58:27;;;;;;;14.75;2.15;;;14.10;95.60;;;;;;5121431;27;20478;-89
2023/04/19 12:00:54;;;;;;;6.40;1.67;;;14.10;95.30;;;;;;5102206;27;20043;-90
2023/04/19 12:03:22;;;;;;;14.73;1.85;;;14.10;95.40;;;;;;5114690;27;20069;-90
2023/04/19 12:05:54;;;;;;;18.00;1.90;;;14.10;95.50;;;;;;5114667;27;20039;-90
2023/04/19 12:08:31;;;;;;;23.55;2.97;;;14.10;95.40;;;;;;5107593;27;20094;-91
2023/04/19 12:10:57;;;;;;;14.80;1.75;;;14.10;95.30;;;;;;5112115;27;20481;-90
2023/04/19 12:13:24;;;;;;;6.53;2.05;;;14.10;95.60;;;;;;5099520;27;20230;-91
2023/04/19 12:15:50;;;;;;;26.63;2.22;;;14.30;96.60;;;;;;5099185;27;20048;-90
2023/04/19 12:18:16;;;;;;;9.88;1.60;;;14.30;95.90;;;;;;5113602;27;20039;-90
2023/04/19 12:20:46;;;;;;;5.43;1.80;;;14.30;95.90;;;;;;5122659;27;20045;-92
2023/04/19 12:23:13;;;;;;;6.95;2.38;;;14.40;96.40;;;;;;5121464;27;20045;-92
2023/04/19 12:25:39;;;;;;;9.27;2.47;;;14.40;96.50;;;;;;5121999;27;20045;-93
2023/04/19 12:28:08;;;;;;;4.95;1.95;;;14.40;96.30;;;;;;5122687;27;20038;-91
2023/04/19 12:30:35;;;;;;;5.80;1.83;;;14.30;96.20;;;;;;5114103;27;20051;-96
2023/04/19 12:33:04;;;;;;;4.88;2.10;;;14.20;95.90;;;;;;5114960;27;20046;-96
2023/04/19 12:35:30;;;;;;;7.07;2.33;;;14.00;96.10;;;;;;5110733;27;20091;-95
2023/04/19 12:37:57;;;;;;;5.60;1.75;;;14.00;96.40;;;;;;5127948;27;20026;-94
2023/04/19 12:40:24;;;;;;;5.68;1.92;;;13.90;96.00;;;;;;5117752;27;20069;-95
2023/04/19 12:42:51;;;;;;;6.28;1.90;;;13.90;96.30;;;;;;5111936;27;20260;-94
2023/04/19 12:45:17;;;;;;;5.72;1.90;;;13.90;96.60;;;;;;5110680;27;20053;-94